Cambria, CA

2:51 AM PDT on November 01, 2014 (GMT -0700)
Lodge Hill | Change Station
CLOSE
Current Station
Personal Weather Station
Location: Cambria, CA
Elevation: 260 ft
Nearby Weather Stations
Active Advisory: Special Statement

Elev 260 ft 35.56 °N, 121.08 °W | Updated 10 minutes ago

Overcast
Overcast
55.7 °F
Feels Like 55.7 °F
N
0.0
Wind Variable Wind from SE
Gusts 2.0 mph

Today
High -- | Low -- °F
--% Chance of Precip.
Yesterday
High -- | Low -- °F
Precip. -- in
7:26 AM 6:09 PM
Waxing Gibbous, 65% visible
Pressure 29.81 in
Visibility 10.0 miles
Clouds Few 700 ft
Overcast 5500 ft
Dew Point 16 °F
Humidity 21%
Rainfall 0.00 in
Snow Depth Not available.
UV 0 out of 12
Pollen 1.70 out of 12
Air Quality Not available.
Flu Activity Not available.
SPECI KPRB 010908Z AUTO 22005KT 10SM FEW007 OVC055 12/10 A2981 RMK AO2 RAE0854 P0000 T01220100 TSNO $

More Conditions Fewer Conditions

Pressure 29.81 in
Visibility 10.0 miles
Clouds Few 700 ft
Overcast 5500 ft
Dew Point 16 °F
Humidity 21%
Rainfall 0.00 in
Snow Depth Not available.
UV 0 out of 12
Pollen 1.70 out of 12
Air Quality Not available.
Flu Activity Not available.
SPECI KPRB 010908Z AUTO 22005KT 10SM FEW007 OVC055 12/10 A2981 RMK AO2 RAE0854 P0000 T01220100 TSNO $

More Conditions Fewer Conditions

Nowcast | as of 12:57 am PDT on November 1, 2014

Scattered showers will continue across San Luis Obispo County through the early morning hours. Overall...the shower activity is expected to be light...but some isolated moderate showers will be possible at times.

×

10-Day Weather Forecast

Almanac

Astronomy

Nov. 01, 2014 Rise Set
Actual Time
Civil Twilight
Nautical Twilight
Astronomical Twilight
Moon
Length of Visible Light
Length of Day
Tomorrow will be .
, % of the Moon is Illuminated

Today's Extremes

State Highs State Lows

Community

WunderPhotos

Upload Photos

1,766,872 photos uploaded!

WunderBlogs® & News

Nearby

Air Quality

  Air Quality AQ Index Pollutant
Not available.

Snow Depth

Station Depth Elevation

Earthquake Activity

City Distance Mag. Time & Date
Minimum magnitude displayed is 2.5.

Coastal Water Temperatures

Place Temperature

Nearby Weather Stations